Time;durP1;ratioP1;P1;durP2;ratioP2;P2;SDS_P1;SDS_P2;PMS_P1;PMS_P2;Temp;Humidity;BMP_temperature;BMP_pressure;BME280_temperature;BME280_humidity;BME280_pressure;Samples;Min_cycle;Max_cycle;Signal;HPM_P1;HPM_P2
2020/12/23 00:02:23;;;;;;;7.40;5.93;;;12.40;99.90;;;;;;5055092;28;20173;-67
2020/12/23 00:04:49;;;;;;;7.70;6.90;;;12.40;99.90;;;;;;5055061;28;20177;-67
2020/12/23 00:07:15;;;;;;;8.10;6.30;;;12.40;99.90;;;;;;5055016;28;20497;-67
2020/12/23 00:09:44;;;;;;;7.50;5.70;;;12.50;99.90;;;;;;5054790;28;20205;-67
2020/12/23 00:12:11;;;;;;;6.90;5.50;;;12.50;99.90;;;;;;5055090;28;20169;-67
2020/12/23 00:14:37;;;;;;;8.23;5.53;;;12.50;99.90;;;;;;5054867;28;20438;-67
2020/12/23 00:17:03;;;;;;;9.13;5.27;;;12.40;99.90;;;;;;5055390;28;20395;-66
2020/12/23 00:19:29;;;;;;;9.00;5.50;;;12.40;99.90;;;;;;5055627;28;20463;-67
2020/12/23 00:21:54;;;;;;;10.20;5.07;;;12.30;99.90;;;;;;5054775;28;20443;-67
2020/12/23 00:24:20;;;;;;;8.40;5.60;;;12.30;99.90;;;;;;5054961;28;20196;-67
2020/12/23 00:26:46;;;;;;;7.57;4.90;;;12.20;99.90;;;;;;5054643;28;20219;-68
2020/12/23 00:29:12;;;;;;;10.20;4.60;;;12.30;99.90;;;;;;5054422;28;20208;-67
2020/12/23 00:31:38;;;;;;;7.80;5.30;;;12.20;99.90;;;;;;5054601;28;20511;-67
2020/12/23 00:34:03;;;;;;;8.43;4.63;;;12.10;99.90;;;;;;5054761;28;20410;-68
2020/12/23 00:36:29;;;;;;;10.27;5.70;;;12.10;99.90;;;;;;5054988;28;20761;-67
2020/12/23 00:38:54;;;;;;;11.50;6.70;;;12.20;99.90;;;;;;5054205;28;20244;-68
2020/12/23 00:41:20;;;;;;;10.10;6.10;;;12.10;99.90;;;;;;5054376;28;20158;-67
2020/12/23 00:43:46;;;;;;;8.20;6.03;;;12.10;99.90;;;;;;5054570;28;20234;-66
2020/12/23 00:46:13;;;;;;;12.40;6.70;;;12.20;99.90;;;;;;5054260;28;20177;-67
2020/12/23 00:48:40;;;;;;;9.97;6.40;;;12.30;99.90;;;;;;5054345;28;20196;-68
2020/12/23 00:51:11;;;;;;;10.93;5.70;;;12.40;99.90;;;;;;5054426;28;20411;-68
2020/12/23 00:53:37;;;;;;;9.43;5.00;;;12.30;99.90;;;;;;5053973;28;20411;-68
2020/12/23 00:56:03;;;;;;;6.70;6.00;;;12.40;99.90;;;;;;5054327;28;20418;-67
2020/12/23 00:58:28;;;;;;;9.87;5.70;;;12.30;99.90;;;;;;5054448;28;20813;-68
2020/12/23 01:00:54;;;;;;;9.67;7.10;;;12.30;99.90;;;;;;5053931;28;20172;-67
2020/12/23 01:03:20;;;;;;;12.60;7.07;;;12.40;99.90;;;;;;5053937;28;20239;-68
2020/12/23 01:05:45;;;;;;;14.17;7.40;;;12.40;99.90;;;;;;5053886;28;20189;-67
2020/12/23 01:08:11;;;;;;;10.97;7.43;;;12.40;99.90;;;;;;5054101;28;20188;-67
2020/12/23 01:10:36;;;;;;;9.53;7.00;;;12.40;99.90;;;;;;5053699;28;20573;-68
2020/12/23 01:13:02;;;;;;;12.13;7.00;;;12.40;99.90;;;;;;5053777;28;20534;-67
2020/12/23 01:15:27;;;;;;;10.13;7.07;;;12.30;99.90;;;;;;5053689;28;20530;-68
2020/12/23 01:17:53;;;;;;;12.70;7.10;;;12.40;99.90;;;;;;5053662;28;20169;-67
2020/12/23 01:20:18;;;;;;;9.83;7.20;;;12.30;99.90;;;;;;5053507;28;20711;-68
2020/12/23 01:22:44;;;;;;;11.27;8.37;;;12.30;99.90;;;;;;5053513;28;20217;-67
2020/12/23 01:25:09;;;;;;;11.43;7.00;;;12.40;99.90;;;;;;5053992;28;20513;-67
2020/12/23 01:27:35;;;;;;;11.93;6.90;;;12.40;99.90;;;;;;5053709;28;20216;-67
2020/12/23 01:30:00;;;;;;;9.93;6.83;;;12.40;99.90;;;;;;5053304;28;20739;-67
2020/12/23 01:32:26;;;;;;;15.87;6.17;;;12.40;99.90;;;;;;5053341;28;20707;-67
2020/12/23 01:34:51;;;;;;;8.70;5.90;;;12.40;99.90;;;;;;5053878;28;20196;-67
2020/12/23 01:37:18;;;;;;;10.00;4.50;;;12.50;99.90;;;;;;5053199;28;20296;-68
2020/12/23 01:39:43;;;;;;;9.07;5.90;;;12.50;99.90;;;;;;5053160;28;20530;-67
2020/12/23 01:42:09;;;;;;;6.60;4.77;;;12.40;99.90;;;;;;5053458;28;20198;-67
2020/12/23 01:44:37;;;;;;;8.70;5.10;;;12.40;99.90;;;;;;5053438;28;20549;-67
2020/12/23 01:47:11;;;;;;;5.37;4.30;;;12.50;99.90;;;;;;5053258;28;20180;-66
2020/12/23 01:49:37;;;;;;;7.23;4.20;;;12.40;99.90;;;;;;5053166;28;20836;-67
2020/12/23 01:52:03;;;;;;;8.87;5.43;;;12.40;99.90;;;;;;5053583;28;20714;-67
2020/12/23 01:54:30;;;;;;;9.13;5.63;;;12.40;99.90;;;;;;5053984;28;20419;-67
2020/12/23 01:56:57;;;;;;;9.13;6.07;;;12.40;99.90;;;;;;5053483;28;20188;-67
2020/12/23 01:59:24;;;;;;;11.67;5.77;;;12.40;99.90;;;;;;5053500;28;20835;-67
2020/12/23 02:02:14;;;;;;;10.87;6.67;;;12.30;99.90;;;;;;5054916;28;20892;-67
2020/12/23 02:04:40;;;;;;;8.20;6.40;;;12.30;99.90;;;;;;5053971;28;20425;-67
2020/12/23 02:07:05;;;;;;;11.37;6.93;;;12.30;99.90;;;;;;5052458;28;20502;-67
2020/12/23 02:09:32;;;;;;;6.13;5.50;;;12.40;99.90;;;;;;5051624;28;20209;-68
2020/12/23 02:11:58;;;;;;;6.60;5.90;;;12.40;99.90;;;;;;5052831;28;20181;-68
2020/12/23 02:14:24;;;;;;;7.90;6.87;;;12.40;99.90;;;;;;5052801;28;20404;-68
2020/12/23 02:16:51;;;;;;;7.13;5.70;;;12.40;99.90;;;;;;5052774;28;20418;-68
2020/12/23 02:19:17;;;;;;;6.40;5.37;;;12.30;99.90;;;;;;5051365;28;20562;-67
2020/12/23 02:21:43;;;;;;;8.13;5.40;;;12.40;99.90;;;;;;5052805;28;20417;-67
2020/12/23 02:24:08;;;;;;;8.27;5.63;;;12.50;99.90;;;;;;5052708;28;20201;-68
2020/12/23 02:26:34;;;;;;;6.27;5.67;;;12.50;99.90;;;;;;5052694;28;20415;-67
2020/12/23 02:28:59;;;;;;;10.80;4.87;;;12.50;99.90;;;;;;5052790;28;20215;-67
2020/12/23 02:31:25;;;;;;;7.07;5.20;;;12.50;99.90;;;;;;5052618;28;20416;-68
2020/12/23 02:33:51;;;;;;;5.73;4.40;;;12.40;99.90;;;;;;5052577;28;20181;-67
2020/12/23 02:36:16;;;;;;;6.30;3.43;;;12.50;99.90;;;;;;5052847;28;20255;-68
2020/12/23 02:38:42;;;;;;;6.60;3.87;;;12.50;99.90;;;;;;5052288;28;20184;-68
2020/12/23 02:41:07;;;;;;;6.67;4.60;;;12.50;99.90;;;;;;5052599;28;20177;-67
2020/12/23 02:43:33;;;;;;;4.97;4.00;;;12.50;99.90;;;;;;5052517;28;20177;-68
2020/12/23 02:45:58;;;;;;;4.00;3.20;;;12.50;99.90;;;;;;5053038;28;20205;-67
2020/12/23 02:48:24;;;;;;;4.73;3.80;;;12.50;99.90;;;;;;5052395;28;20173;-67
2020/12/23 02:50:49;;;;;;;5.37;3.77;;;12.50;99.90;;;;;;5052327;28;20196;-67
2020/12/23 02:53:15;;;;;;;7.47;4.60;;;12.50;99.90;;;;;;5052720;28;20176;-66
2020/12/23 02:55:41;;;;;;;5.97;3.60;;;12.50;99.90;;;;;;5052719;28;20200;-67
2020/12/23 02:58:06;;;;;;;6.10;4.27;;;12.50;99.90;;;;;;5052378;28;20273;-68
2020/12/23 03:00:32;;;;;;;7.00;4.40;;;12.30;99.90;;;;;;5052592;28;20193;-68
2020/12/23 03:02:57;;;;;;;5.20;4.70;;;12.30;99.90;;;;;;5052790;28;20183;-67
2020/12/23 03:05:23;;;;;;;4.80;3.90;;;12.40;99.90;;;;;;5052374;28;20177;-68
2020/12/23 03:07:48;;;;;;;9.37;4.90;;;12.30;99.90;;;;;;5052825;28;20173;-67
2020/12/23 03:10:14;;;;;;;5.20;4.30;;;12.30;99.90;;;;;;5052531;28;20233;-67
2020/12/23 03:12:39;;;;;;;5.70;3.80;;;12.20;99.90;;;;;;5052291;28;20166;-67
2020/12/23 03:15:05;;;;;;;5.37;3.73;;;12.30;99.90;;;;;;5052546;28;20654;-67
2020/12/23 03:17:30;;;;;;;4.80;4.40;;;12.20;99.90;;;;;;5052938;28;20495;-67
2020/12/23 03:19:56;;;;;;;4.90;3.70;;;12.20;99.90;;;;;;5058569;28;20196;-66
2020/12/23 03:22:22;;;;;;;13.57;4.07;;;12.30;99.90;;;;;;5058840;28;20222;-66
2020/12/23 03:24:47;;;;;;;5.40;4.90;;;12.10;99.90;;;;;;5058598;28;20169;-66
2020/12/23 03:27:13;;;;;;;6.43;4.40;;;12.30;99.90;;;;;;5056809;28;20176;-65
2020/12/23 03:29:38;;;;;;;5.50;3.90;;;12.40;99.90;;;;;;5055638;28;20721;-65
2020/12/23 03:32:04;;;;;;;5.47;4.20;;;12.50;99.90;;;;;;5056041;28;20166;-66
2020/12/23 03:34:29;;;;;;;4.30;3.00;;;12.60;99.90;;;;;;5055804;28;20167;-65
2020/12/23 03:36:55;;;;;;;4.80;3.17;;;12.50;99.90;;;;;;5055677;28;20166;-66
2020/12/23 03:39:21;;;;;;;4.27;3.30;;;12.50;99.90;;;;;;5055573;28;20316;-65
2020/12/23 03:41:47;;;;;;;3.70;2.70;;;12.60;99.90;;;;;;5055786;28;20918;-65
2020/12/23 03:44:12;;;;;;;6.20;3.00;;;12.60;99.90;;;;;;5055710;28;20178;-63
2020/12/23 03:46:38;;;;;;;2.43;2.00;;;12.50;99.90;;;;;;5055923;28;20672;-65
2020/12/23 03:49:03;;;;;;;3.60;2.43;;;12.50;99.90;;;;;;5055314;28;20201;-66
2020/12/23 03:51:29;;;;;;;4.80;2.60;;;12.60;99.90;;;;;;5055335;28;20165;-65
2020/12/23 03:53:54;;;;;;;5.40;3.00;;;12.50;99.90;;;;;;5055300;28;20533;-65
2020/12/23 03:56:20;;;;;;;4.33;2.97;;;12.50;99.90;;;;;;5055496;28;20252;-66
2020/12/23 03:58:45;;;;;;;3.60;3.07;;;12.50;99.90;;;;;;5055145;28;20176;-66
2020/12/23 04:01:11;;;;;;;2.73;2.03;;;12.50;99.90;;;;;;5056595;28;20177;-65
2020/12/23 04:03:36;;;;;;;8.33;2.60;;;12.50;99.90;;;;;;5057317;28;20176;-66
2020/12/23 04:06:02;;;;;;;3.13;1.90;;;12.50;99.90;;;;;;5056145;28;20165;-66
2020/12/23 04:08:28;;;;;;;2.63;1.77;;;12.60;99.90;;;;;;5055109;28;20661;-67
2020/12/23 04:10:53;;;;;;;3.23;2.20;;;12.60;99.90;;;;;;5054897;28;20411;-67
2020/12/23 04:13:19;;;;;;;4.20;2.20;;;12.50;99.90;;;;;;5054797;28;20165;-67
2020/12/23 04:15:45;;;;;;;3.70;1.70;;;12.40;99.90;;;;;;5055193;28;20176;-67
2020/12/23 04:18:11;;;;;;;1.80;1.40;;;12.50;99.90;;;;;;5055245;28;20612;-67
2020/12/23 04:20:37;;;;;;;4.30;2.13;;;12.40;99.90;;;;;;5055128;28;20195;-67
2020/12/23 04:23:02;;;;;;;1.60;1.03;;;12.50;99.90;;;;;;5055026;28;20758;-66
2020/12/23 04:25:28;;;;;;;1.90;1.00;;;12.50;99.90;;;;;;5054723;28;20177;-68
2020/12/23 04:27:53;;;;;;;3.33;1.33;;;12.50;99.90;;;;;;5054676;28;20231;-67
2020/12/23 04:30:19;;;;;;;2.00;1.20;;;12.60;99.90;;;;;;5054118;28;20238;-67
2020/12/23 04:32:45;;;;;;;4.60;1.60;;;12.50;99.90;;;;;;5054596;28;20176;-67
2020/12/23 04:35:10;;;;;;;1.13;0.87;;;12.50;99.90;;;;;;5054564;28;20174;-67
2020/12/23 04:37:36;;;;;;;3.67;0.90;;;12.50;99.90;;;;;;5054500;28;20515;-67
2020/12/23 04:40:04;;;;;;;1.27;0.90;;;12.60;99.90;;;;;;5054304;28;20220;-67
2020/12/23 04:42:29;;;;;;;3.07;1.23;;;12.50;99.90;;;;;;5054276;28;20306;-66
2020/12/23 04:44:56;;;;;;;1.90;1.67;;;12.50;99.90;;;;;;5054320;28;20443;-67
2020/12/23 04:47:26;;;;;;;2.53;0.80;;;12.50;99.90;;;;;;5054520;28;20473;-67
2020/12/23 04:49:54;;;;;;;1.97;1.10;;;12.60;99.90;;;;;;5054038;28;20869;-67
2020/12/23 04:52:23;;;;;;;2.33;0.80;;;12.60;99.90;;;;;;5054449;28;20784;-67
2020/12/23 04:54:49;;;;;;;1.53;1.30;;;12.50;99.90;;;;;;5054115;28;20903;-67
2020/12/23 04:57:17;;;;;;;1.70;1.00;;;12.60;99.90;;;;;;5054357;28;20498;-67
2020/12/23 04:59:43;;;;;;;2.20;1.03;;;12.70;99.90;;;;;;5054195;28;20521;-67
2020/12/23 05:02:09;;;;;;;1.77;1.03;;;12.70;99.90;;;;;;5054270;28;20427;-67
2020/12/23 05:04:35;;;;;;;2.27;1.20;;;12.70;99.90;;;;;;5054179;28;20835;-67
2020/12/23 05:07:05;;;;;;;2.33;1.50;;;12.70;99.90;;;;;;5053924;28;20672;-67
2020/12/23 05:09:31;;;;;;;1.77;0.97;;;12.70;99.90;;;;;;5054004;28;20214;-67
2020/12/23 05:11:56;;;;;;;6.50;1.40;;;12.50;99.90;;;;;;5054058;28;20494;-67
2020/12/23 05:14:23;;;;;;;2.30;1.17;;;12.60;99.90;;;;;;5053982;28;20248;-67
2020/12/23 05:16:50;;;;;;;1.97;1.10;;;12.60;99.90;;;;;;5053591;28;20382;-67
2020/12/23 05:19:17;;;;;;;1.97;1.47;;;12.60;99.90;;;;;;5053767;28;20423;-66
2020/12/23 05:21:43;;;;;;;1.50;1.37;;;12.60;99.90;;;;;;5053537;28;20418;-68
2020/12/23 05:24:10;;;;;;;1.60;1.00;;;12.60;99.90;;;;;;5053526;28;20515;-67
2020/12/23 05:26:40;;;;;;;2.27;1.10;;;12.50;99.90;;;;;;5053468;28;20399;-67
2020/12/23 05:29:05;;;;;;;3.13;1.37;;;12.50;99.90;;;;;;5053563;28;20833;-67
2020/12/23 05:31:35;;;;;;;2.70;1.13;;;12.50;99.90;;;;;;5053363;28;20404;-66
2020/12/23 05:34:03;;;;;;;2.10;1.53;;;12.40;99.90;;;;;;5053241;28;20257;-67
2020/12/23 05:36:31;;;;;;;2.80;1.33;;;12.60;99.90;;;;;;5053294;28;20411;-67
2020/12/23 05:38:58;;;;;;;1.10;0.90;;;12.60;99.90;;;;;;5053468;28;20601;-67
2020/12/23 05:41:25;;;;;;;1.90;1.20;;;12.60;99.90;;;;;;5078052;22;20860;-66
2020/12/23 05:43:50;;;;;;;1.63;1.30;;;12.60;99.90;;;;;;5052254;28;20411;-67
2020/12/23 05:46:17;;;;;;;1.83;1.30;;;12.60;99.90;;;;;;5053692;28;20387;-68
2020/12/23 05:48:42;;;;;;;1.67;1.23;;;12.50;99.90;;;;;;5053292;28;20172;-66
2020/12/23 05:51:09;;;;;;;2.23;1.20;;;12.60;99.90;;;;;;5053468;28;20800;-66
2020/12/23 05:53:37;;;;;;;2.40;1.33;;;12.50;99.90;;;;;;5053767;28;20240;-65
2020/12/23 05:56:04;;;;;;;4.40;1.23;;;12.50;99.90;;;;;;5051868;28;20447;-65
2020/12/23 05:58:32;;;;;;;1.47;1.10;;;12.60;99.90;;;;;;5053444;28;20411;-66
2020/12/23 06:01:00;;;;;;;1.40;1.30;;;12.50;99.90;;;;;;5053068;28;20963;-66
2020/12/23 06:03:55;;;;;;;2.53;0.80;;;12.60;99.90;;;;;;5053047;28;20399;-65
2020/12/23 06:06:25;;;;;;;2.03;1.43;;;12.70;99.90;;;;;;5053415;28;20477;-66
2020/12/23 06:08:56;;;;;;;2.20;1.00;;;12.70;99.90;;;;;;5053059;28;20427;-66
2020/12/23 06:11:35;;;;;;;4.70;1.03;;;12.80;99.90;;;;;;5053039;28;20436;-66
2020/12/23 06:14:08;;;;;;;1.80;1.10;;;12.70;99.90;;;;;;5053044;28;20404;-65
2020/12/23 06:16:38;;;;;;;1.80;1.40;;;12.70;99.90;;;;;;5053249;28;20821;-65
2020/12/23 06:19:06;;;;;;;1.70;0.90;;;12.70;99.90;;;;;;5051785;28;20458;-65
2020/12/23 06:21:33;;;;;;;3.27;0.83;;;12.80;99.90;;;;;;5053065;28;20432;-65
2020/12/23 06:24:04;;;;;;;5.10;2.17;;;12.80;99.90;;;;;;5053034;28;20442;-65
2020/12/23 06:26:35;;;;;;;2.30;1.43;;;12.70;99.90;;;;;;5052725;28;20411;-65
2020/12/23 06:29:03;;;;;;;1.50;1.13;;;12.70;99.90;;;;;;5052900;28;20935;-65
2020/12/23 06:31:42;;;;;;;1.60;1.17;;;12.70;99.90;;;;;;5053073;28;20522;-65
2020/12/23 06:34:18;;;;;;;1.33;1.13;;;12.60;99.90;;;;;;5051290;28;20410;-65
2020/12/23 06:36:45;;;;;;;1.53;0.93;;;12.60;99.90;;;;;;5052696;28;20397;-66
2020/12/23 06:39:38;;;;;;;1.70;1.10;;;12.50;99.90;;;;;;5052831;28;20403;-66
2020/12/23 06:42:03;;;;;;;2.00;1.40;;;12.70;99.90;;;;;;5052777;28;20396;-66
2020/12/23 06:44:41;;;;;;;1.30;0.70;;;12.60;99.90;;;;;;5052761;28;20804;-65
2020/12/23 06:47:27;;;;;;;2.33;1.00;;;12.80;99.90;;;;;;5051354;28;20170;-64
2020/12/23 06:50:02;;;;;;;3.13;1.20;;;12.80;99.90;;;;;;5052028;28;20497;-65
2020/12/23 06:52:29;;;;;;;1.20;0.70;;;12.80;99.90;;;;;;5054521;28;20495;-66
2020/12/23 06:55:12;;;;;;;1.00;0.83;;;12.80;99.90;;;;;;5056546;28;20395;-66
2020/12/23 06:57:37;;;;;;;3.40;0.87;;;12.90;99.90;;;;;;5056927;28;20389;-65
2020/12/23 07:00:07;;;;;;;1.57;0.80;;;12.80;99.90;;;;;;5055116;28;20755;-65
2020/12/23 07:02:35;;;;;;;1.97;0.70;;;12.80;99.90;;;;;;5056421;28;20178;-66
2020/12/23 07:05:01;;;;;;;3.17;0.70;;;12.80;99.90;;;;;;5056767;28;20966;-66
2020/12/23 07:07:39;;;;;;;2.87;0.87;;;12.70;99.90;;;;;;5056261;28;20448;-66
2020/12/23 07:10:23;;;;;;;1.27;0.60;;;12.80;99.90;;;;;;5056028;28;20447;-66
2020/12/23 07:12:51;;;;;;;0.90;0.60;;;12.80;99.90;;;;;;5056085;28;20906;-65
2020/12/23 07:15:28;;;;;;;1.07;0.70;;;12.80;99.90;;;;;;5055353;28;20399;-67
2020/12/23 07:18:00;;;;;;;0.90;0.70;;;12.80;99.90;;;;;;5056667;28;20401;-65
2020/12/23 07:20:26;;;;;;;1.53;0.80;;;12.90;99.90;;;;;;5056127;28;20428;-65
2020/12/23 07:22:53;;;;;;;1.30;0.70;;;13.00;99.90;;;;;;5056535;28;20396;-65
2020/12/23 07:25:21;;;;;;;1.03;0.70;;;12.90;99.90;;;;;;5055018;28;20292;-64
2020/12/23 07:27:47;;;;;;;1.50;0.97;;;13.00;99.90;;;;;;5056197;28;20435;-65
2020/12/23 07:30:13;;;;;;;0.90;0.57;;;13.00;99.90;;;;;;5056563;28;20487;-67
2020/12/23 07:32:40;;;;;;;1.93;0.90;;;12.90;99.90;;;;;;5056303;28;20175;-67
2020/12/23 07:35:06;;;;;;;1.50;0.60;;;12.90;99.90;;;;;;5056185;28;20438;-65
2020/12/23 07:37:39;;;;;;;0.90;0.50;;;12.90;99.90;;;;;;5056227;28;20412;-65
2020/12/23 07:40:14;;;;;;;1.77;0.80;;;12.90;99.90;;;;;;5056038;28;20439;-65
2020/12/23 07:42:46;;;;;;;1.10;0.70;;;12.90;99.90;;;;;;5055701;28;20424;-65
2020/12/23 07:45:12;;;;;;;1.20;0.80;;;12.80;99.90;;;;;;5057043;28;20736;-65
2020/12/23 07:47:37;;;;;;;4.20;1.03;;;12.80;99.90;;;;;;5056081;28;20438;-66
2020/12/23 07:50:05;;;;;;;1.13;0.73;;;12.80;99.90;;;;;;5055782;28;20212;-65
2020/12/23 07:52:31;;;;;;;2.40;0.90;;;12.80;99.90;;;;;;5055714;28;20187;-65
2020/12/23 07:55:17;;;;;;;3.63;1.43;;;12.80;99.90;;;;;;5055735;28;20418;-65
2020/12/23 07:57:44;;;;;;;1.40;0.93;;;12.60;99.90;;;;;;5056430;28;20381;-67
2020/12/23 08:00:11;;;;;;;1.23;0.90;;;12.80;99.90;;;;;;5055996;28;20431;-65
2020/12/23 08:02:37;;;;;;;5.27;1.20;;;12.80;99.90;;;;;;5055357;28;20413;-66
2020/12/23 08:05:04;;;;;;;1.20;0.80;;;12.90;99.90;;;;;;5054560;28;20430;-67
2020/12/23 08:07:30;;;;;;;1.10;0.70;;;13.00;99.90;;;;;;5055479;28;20411;-66
2020/12/23 08:09:56;;;;;;;1.63;0.70;;;12.90;99.90;;;;;;5055192;28;20463;-64
2020/12/23 08:12:21;;;;;;;2.70;0.80;;;12.90;99.90;;;;;;5053932;28;20165;-65
2020/12/23 08:14:48;;;;;;;4.40;1.27;;;13.00;99.90;;;;;;5055475;28;20179;-65
2020/12/23 08:17:23;;;;;;;1.73;1.10;;;13.10;99.90;;;;;;5055359;28;20228;-65
2020/12/23 08:20:13;;;;;;;1.17;0.60;;;13.10;99.90;;;;;;5054832;28;20786;-63
2020/12/23 08:22:41;;;;;;;1.03;0.63;;;13.00;99.90;;;;;;5054984;28;20389;-65
2020/12/23 08:25:10;;;;;;;1.10;0.60;;;12.90;99.90;;;;;;5055111;28;20795;-66
2020/12/23 08:27:37;;;;;;;1.10;0.80;;;13.00;99.90;;;;;;5055317;28;20482;-66
2020/12/23 08:30:06;;;;;;;3.40;1.43;;;13.00;99.90;;;;;;5055243;28;20489;-66
2020/12/23 08:32:38;;;;;;;3.40;1.10;;;12.90;99.90;;;;;;5055844;28;20482;-65
2020/12/23 08:35:05;;;;;;;3.93;0.80;;;13.00;99.90;;;;;;5054979;28;20413;-64
2020/12/23 08:37:34;;;;;;;1.80;0.87;;;13.10;99.90;;;;;;5054864;28;20915;-65
2020/12/23 08:39:59;;;;;;;3.73;1.13;;;13.10;99.90;;;;;;5053543;28;21002;-66
2020/12/23 08:42:25;;;;;;;2.70;0.70;;;13.10;99.90;;;;;;5054939;28;20393;-66
2020/12/23 08:44:54;;;;;;;0.90;0.70;;;13.10;99.90;;;;;;5054712;28;20173;-67
2020/12/23 08:47:26;;;;;;;2.27;0.77;;;13.10;99.90;;;;;;5054610;28;20879;-66
2020/12/23 08:49:54;;;;;;;1.33;0.80;;;13.10;99.90;;;;;;5053549;28;20460;-67
2020/12/23 08:52:20;;;;;;;3.60;2.20;;;13.10;99.90;;;;;;5054955;28;20411;-68
2020/12/23 08:54:48;;;;;;;2.60;1.30;;;13.10;99.90;;;;;;5054935;28;20437;-69
2020/12/23 08:57:15;;;;;;;1.43;0.80;;;13.00;99.90;;;;;;5054684;28;20522;-68
2020/12/23 08:59:41;;;;;;;1.00;0.60;;;13.10;99.90;;;;;;5054478;28;20407;-69
2020/12/23 09:02:15;;;;;;;3.87;0.80;;;13.10;99.90;;;;;;5054333;28;20970;-68
2020/12/23 09:04:41;;;;;;;4.87;0.97;;;13.10;99.90;;;;;;5055000;28;20749;-68
2020/12/23 09:07:07;;;;;;;1.23;0.80;;;13.10;99.90;;;;;;5053054;28;20417;-69
2020/12/23 09:09:32;;;;;;;2.13;0.70;;;13.20;99.90;;;;;;5054530;28;20300;-68
2020/12/23 09:11:59;;;;;;;1.13;0.73;;;13.20;99.90;;;;;;5054168;28;20421;-68
2020/12/23 09:14:30;;;;;;;1.40;0.80;;;13.20;99.90;;;;;;5054220;28;20395;-70
2020/12/23 09:17:03;;;;;;;1.00;0.80;;;13.30;99.90;;;;;;5054302;28;20754;-69
2020/12/23 09:19:48;;;;;;;1.37;0.80;;;13.30;99.90;;;;;;5052852;28;20416;-69
2020/12/23 09:22:46;;;;;;;1.13;0.93;;;13.30;99.90;;;;;;5054517;28;20557;-69
2020/12/23 09:25:32;;;;;;;3.33;1.50;;;13.30;99.90;;;;;;5045711;28;20422;-69
2020/12/23 09:28:14;;;;;;;1.30;0.80;;;13.20;99.90;;;;;;5053967;28;20380;-68
2020/12/23 09:30:48;;;;;;;1.50;0.80;;;13.30;99.90;;;;;;5053314;28;20493;-68
2020/12/23 09:33:21;;;;;;;1.30;1.00;;;13.40;99.90;;;;;;5053642;28;20396;-68
2020/12/23 09:36:08;;;;;;;3.07;0.90;;;13.40;99.90;;;;;;5053501;28;20400;-69
2020/12/23 09:38:34;;;;;;;1.33;0.90;;;13.40;99.90;;;;;;5053711;28;20753;-68
2020/12/23 09:41:01;;;;;;;3.17;0.73;;;13.50;99.90;;;;;;5053474;28;20439;-68
2020/12/23 09:43:29;;;;;;;1.00;0.70;;;13.60;99.90;;;;;;5053844;28;20496;-68
2020/12/23 09:45:57;;;;;;;1.50;0.90;;;13.50;99.90;;;;;;5053585;28;20833;-69
2020/12/23 09:48:26;;;;;;;1.87;1.07;;;13.40;99.90;;;;;;5053480;28;20421;-69
2020/12/23 09:50:55;;;;;;;1.20;0.70;;;13.40;99.90;;;;;;5053621;28;20471;-69
2020/12/23 09:53:25;;;;;;;3.17;0.87;;;13.50;99.90;;;;;;5053632;28;20407;-69
2020/12/23 09:55:51;;;;;;;3.23;0.90;;;13.70;99.90;;;;;;5053573;28;20454;-68
2020/12/23 09:58:18;;;;;;;2.80;0.70;;;13.80;99.90;;;;;;5052007;28;20421;-68
2020/12/23 10:00:46;;;;;;;2.90;0.80;;;13.80;99.90;;;;;;5062289;28;20439;-68
2020/12/23 10:03:12;;;;;;;1.30;0.80;;;13.80;99.90;;;;;;5065530;28;20419;-68
2020/12/23 10:05:38;;;;;;;1.80;0.87;;;13.70;99.90;;;;;;5063811;28;20408;-67
2020/12/23 10:08:04;;;;;;;1.43;0.80;;;13.80;99.90;;;;;;5064259;28;20835;-68
2020/12/23 10:10:30;;;;;;;1.37;0.90;;;13.80;99.90;;;;;;5065932;28;20483;-68
2020/12/23 10:12:56;;;;;;;1.67;0.80;;;13.80;99.90;;;;;;5064046;28;20411;-68
2020/12/23 10:15:22;;;;;;;0.90;0.50;;;13.90;99.90;;;;;;5056261;28;20169;-68
2020/12/23 10:17:47;;;;;;;1.00;0.70;;;13.80;99.90;;;;;;5053835;28;20405;-68
2020/12/23 10:20:13;;;;;;;3.13;0.90;;;13.80;99.90;;;;;;5053174;28;20610;-68
2020/12/23 10:22:39;;;;;;;3.47;0.80;;;13.70;99.90;;;;;;5053115;28;20177;-68
2020/12/23 10:25:06;;;;;;;1.50;0.80;;;13.70;99.90;;;;;;5051688;28;20181;-69
2020/12/23 10:27:32;;;;;;;2.00;0.90;;;13.60;99.90;;;;;;5055581;28;20455;-67
2020/12/23 10:29:58;;;;;;;1.50;0.83;;;13.50;99.90;;;;;;5057105;28;20459;-70
2020/12/23 10:32:24;;;;;;;3.53;0.87;;;13.60;99.90;;;;;;5057956;28;20433;-69
2020/12/23 10:34:50;;;;;;;3.13;0.80;;;13.50;99.90;;;;;;5056971;28;20298;-69
2020/12/23 10:37:19;;;;;;;1.20;0.90;;;13.40;99.90;;;;;;5057001;28;20403;-69
2020/12/23 10:39:45;;;;;;;2.17;1.23;;;13.30;99.90;;;;;;5056975;28;20165;-69
2020/12/23 10:42:10;;;;;;;1.00;0.77;;;13.40;99.90;;;;;;5056731;28;20404;-68
2020/12/23 10:44:36;;;;;;;1.03;0.73;;;13.50;99.90;;;;;;5056779;28;20453;-68
2020/12/23 10:47:02;;;;;;;1.30;0.90;;;13.40;99.90;;;;;;5056840;28;20186;-68
2020/12/23 10:49:28;;;;;;;1.70;0.80;;;13.50;99.90;;;;;;5056601;28;20193;-68
2020/12/23 10:51:56;;;;;;;2.80;0.90;;;13.50;99.90;;;;;;5056291;28;20185;-67
2020/12/23 10:54:27;;;;;;;1.23;0.70;;;13.60;99.90;;;;;;5056380;28;20950;-68
2020/12/23 10:56:53;;;;;;;1.10;0.70;;;13.60;99.90;;;;;;5056175;28;20457;-69
2020/12/23 10:59:19;;;;;;;3.57;0.90;;;13.50;99.90;;;;;;5056498;28;20412;-69
2020/12/23 11:01:44;;;;;;;1.60;0.80;;;13.50;99.90;;;;;;5056001;28;21011;-68
2020/12/23 11:04:11;;;;;;;3.60;1.90;;;13.50;99.90;;;;;;5056320;28;20382;-68
2020/12/23 11:06:36;;;;;;;4.07;2.43;;;13.50;99.90;;;;;;5056157;28;20169;-68
2020/12/23 11:09:03;;;;;;;2.13;1.30;;;13.50;99.90;;;;;;5056223;28;20450;-68
2020/12/23 11:11:29;;;;;;;3.23;1.40;;;13.40;99.90;;;;;;5056340;28;20185;-68
2020/12/23 11:13:55;;;;;;;2.50;1.17;;;13.40;99.90;;;;;;5056128;28;20406;-68
2020/12/23 11:16:21;;;;;;;3.60;1.90;;;13.30;99.90;;;;;;5056044;28;20903;-67
2020/12/23 11:18:47;;;;;;;3.77;2.13;;;13.30;99.90;;;;;;5055914;28;20252;-68
2020/12/23 11:21:14;;;;;;;5.00;2.07;;;13.40;99.90;;;;;;5055513;28;20427;-68
2020/12/23 11:23:40;;;;;;;6.20;3.03;;;13.40;99.90;;;;;;5054623;28;20438;-68
2020/12/23 11:26:20;;;;;;;5.40;3.40;;;13.40;99.90;;;;;;5055761;28;20415;-70
2020/12/23 11:28:45;;;;;;;9.20;2.33;;;13.30;99.90;;;;;;5055808;28;20380;-67
2020/12/23 11:31:15;;;;;;;2.77;1.40;;;13.20;99.90;;;;;;5055712;28;20430;-67
2020/12/23 11:33:41;;;;;;;3.63;2.33;;;13.20;99.90;;;;;;5056263;28;20192;-68
2020/12/23 11:36:06;;;;;;;1.53;1.03;;;13.20;99.90;;;;;;5055634;28;20413;-70
2020/12/23 11:38:32;;;;;;;2.40;0.97;;;13.20;99.90;;;;;;5054470;28;20428;-67
2020/12/23 11:40:57;;;;;;;3.83;1.20;;;13.20;99.90;;;;;;5057004;28;20259;-65
2020/12/23 11:43:23;;;;;;;4.43;1.03;;;13.10;99.90;;;;;;5055771;28;20172;-65
2020/12/23 11:45:49;;;;;;;6.23;1.43;;;13.10;99.90;;;;;;5055195;28;20219;-66
2020/12/23 11:48:14;;;;;;;4.00;1.53;;;13.10;99.90;;;;;;5055386;28;20214;-66
2020/12/23 11:50:40;;;;;;;2.13;1.40;;;13.10;99.90;;;;;;5055451;28;20208;-65
2020/12/23 11:53:06;;;;;;;3.40;1.90;;;13.10;99.90;;;;;;5055423;28;20528;-64
2020/12/23 11:55:31;;;;;;;3.00;1.37;;;13.10;99.90;;;;;;5055525;28;20461;-65
2020/12/23 11:57:57;;;;;;;2.07;1.60;;;13.10;99.90;;;;;;5055214;28;20186;-66
2020/12/23 12:00:23;;;;;;;4.67;1.70;;;13.20;99.90;;;;;;5055445;28;20200;-65
2020/12/23 12:02:48;;;;;;;5.83;1.40;;;13.20;99.90;;;;;;5055589;28;20409;-65
2020/12/23 12:05:14;;;;;;;2.63;1.17;;;13.20;99.90;;;;;;5055250;28;20173;-66
2020/12/23 12:07:40;;;;;;;1.47;1.00;;;13.30;99.90;;;;;;5055280;28;20161;-66
2020/12/23 12:10:07;;;;;;;5.50;2.40;;;13.20;99.90;;;;;;5054872;28;20733;-66
2020/12/23 12:12:34;;;;;;;6.30;2.90;;;13.20;99.90;;;;;;5054816;28;20409;-65
2020/12/23 12:14:59;;;;;;;9.30;5.13;;;13.10;99.90;;;;;;5054711;28;20404;-66
2020/12/23 12:17:26;;;;;;;9.17;5.53;;;13.10;99.90;;;;;;5055032;28;20415;-65
2020/12/23 12:19:52;;;;;;;7.50;4.27;;;13.20;99.90;;;;;;5054738;28;20207;-66
2020/12/23 12:22:17;;;;;;;4.40;3.20;;;13.10;99.90;;;;;;5054767;28;20407;-66
2020/12/23 12:24:43;;;;;;;7.13;2.57;;;13.20;99.90;;;;;;5053351;28;20756;-66
2020/12/23 12:27:08;;;;;;;1.90;0.70;;;13.10;99.90;;;;;;5054894;28;20230;-66
2020/12/23 12:29:34;;;;;;;4.67;3.40;;;13.00;99.90;;;;;;5054781;28;20602;-66
2020/12/23 12:32:00;;;;;;;4.57;2.70;;;13.00;99.90;;;;;;5054682;28;20168;-66
2020/12/23 12:34:27;;;;;;;1.80;1.10;;;13.10;99.90;;;;;;5053356;28;20451;-65
2020/12/23 12:36:54;;;;;;;1.60;1.27;;;13.00;99.90;;;;;;5054696;28;20173;-66
2020/12/23 12:39:19;;;;;;;1.97;1.17;;;13.00;99.90;;;;;;5053350;28;20496;-66
2020/12/23 12:41:45;;;;;;;2.30;0.83;;;12.90;99.90;;;;;;5054479;28;20450;-66
2020/12/23 12:44:11;;;;;;;4.60;1.30;;;12.80;99.90;;;;;;5053519;28;20724;-65
2020/12/23 12:46:36;;;;;;;1.93;1.00;;;12.80;99.90;;;;;;5054445;28;20195;-66
2020/12/23 12:49:02;;;;;;;1.50;0.60;;;12.70;99.90;;;;;;5054730;28;20232;-65